createdAt,value
2019-03-09T00:01:34.470Z,9.60
2019-03-09T00:04:04.342Z,9.70
2019-03-09T00:06:34.005Z,9.70
2019-03-09T00:09:04.776Z,9.70
2019-03-09T00:11:34.376Z,9.70
2019-03-09T00:14:04.221Z,9.60
2019-03-09T00:16:34.219Z,9.60
2019-03-09T00:19:03.869Z,9.60
2019-03-09T00:21:33.471Z,9.60
2019-03-09T00:24:13.515Z,9.50
2019-03-09T00:26:57.053Z,9.40
2019-03-09T00:29:27.487Z,9.40
2019-03-09T00:32:01.132Z,9.30
2019-03-09T00:34:30.723Z,9.20
2019-03-09T00:37:00.311Z,9.30
2019-03-09T00:39:29.946Z,9.30
2019-03-09T00:41:59.531Z,9.20
2019-03-09T00:44:29.170Z,9.10
2019-03-09T00:46:58.769Z,9.10
2019-03-09T00:49:28.666Z,9.10
2019-03-09T00:51:58.272Z,9.10
2019-03-09T00:54:27.946Z,9.10
2019-03-09T00:56:57.576Z,9.20
2019-03-09T00:59:27.191Z,9.10
2019-03-09T01:01:56.840Z,9.00
2019-03-09T01:04:26.516Z,9.10
2019-03-09T01:06:56.091Z,9.10
2019-03-09T01:09:25.700Z,9.10
2019-03-09T01:11:55.311Z,9.00
2019-03-09T01:14:24.910Z,9.10
2019-03-09T01:16:54.515Z,9.10
2019-03-09T01:19:24.122Z,9.00
2019-03-09T01:21:53.735Z,9.00
2019-03-09T01:24:23.431Z,9.10
2019-03-09T01:26:53.011Z,9.20
2019-03-09T01:29:22.725Z,9.10
2019-03-09T01:31:52.313Z,9.10
2019-03-09T01:34:21.912Z,9.10
2019-03-09T01:36:51.504Z,9.10
2019-03-09T01:39:21.194Z,9.20
2019-03-09T01:41:50.799Z,9.20
2019-03-09T01:44:20.411Z,9.20
2019-03-09T01:46:50.004Z,9.30
2019-03-09T01:49:19.677Z,9.30
2019-03-09T01:51:49.356Z,9.40
2019-03-09T01:54:18.939Z,9.30
2019-03-09T01:56:48.561Z,9.40
2019-03-09T01:59:18.142Z,9.50
2019-03-09T02:01:47.814Z,9.40
2019-03-09T02:04:17.415Z,9.40
2019-03-09T02:06:47.075Z,9.40
2019-03-09T02:09:17.021Z,9.40
2019-03-09T02:11:46.712Z,9.50
2019-03-09T02:14:16.325Z,9.50
2019-03-09T02:16:45.943Z,9.60
2019-03-09T02:19:15.518Z,9.60
2019-03-09T02:21:45.122Z,9.60
2019-03-09T02:24:14.731Z,9.60
2019-03-09T02:26:44.391Z,9.70
2019-03-09T02:29:14.012Z,9.60
2019-03-09T02:31:43.693Z,9.70
2019-03-09T02:34:13.274Z,9.80
2019-03-09T02:36:42.884Z,9.70
2019-03-09T02:39:14.212Z,9.70
2019-03-09T02:41:43.792Z,9.70
2019-03-09T02:44:13.496Z,9.90
2019-03-09T02:46:43.133Z,9.90
2019-03-09T02:49:12.724Z,10.00
2019-03-09T02:51:42.331Z,9.90
2019-03-09T02:54:11.927Z,9.90
2019-03-09T02:56:41.516Z,9.80
2019-03-09T02:59:11.132Z,9.90
2019-03-09T03:01:42.392Z,9.90
2019-03-09T03:04:12.010Z,9.90
2019-03-09T03:06:41.645Z,10.00
2019-03-09T03:09:11.296Z,10.00
2019-03-09T03:11:40.924Z,10.10
2019-03-09T03:14:10.523Z,10.10
2019-03-09T03:16:40.147Z,10.00
2019-03-09T03:19:09.832Z,10.00
2019-03-09T03:21:39.491Z,10.10
2019-03-09T03:24:09.102Z,10.10
2019-03-09T03:26:38.728Z,10.20
2019-03-09T03:29:08.418Z,10.20
2019-03-09T03:31:38.036Z,10.20
2019-03-09T03:34:07.648Z,10.30
2019-03-09T03:36:37.277Z,10.30
2019-03-09T03:39:07.727Z,10.40
2019-03-09T03:41:37.327Z,10.40
2019-03-09T03:44:06.936Z,10.40
2019-03-09T03:46:36.632Z,10.40
2019-03-09T03:49:06.294Z,10.40
2019-03-09T03:51:35.912Z,10.40
2019-03-09T03:54:05.537Z,10.40
2019-03-09T03:56:35.297Z,10.40
2019-03-09T03:59:04.962Z,10.40
2019-03-09T04:01:34.578Z,10.40
2019-03-09T04:04:04.309Z,10.50
2019-03-09T04:06:33.980Z,10.50
2019-03-09T04:09:04.888Z,10.50
2019-03-09T04:11:35.027Z,10.50
2019-03-09T04:14:04.961Z,10.50
2019-03-09T04:16:34.589Z,10.50
2019-03-09T04:19:04.297Z,10.50
2019-03-09T04:21:33.875Z,10.50
2019-03-09T04:24:03.560Z,10.60
2019-03-09T04:26:33.231Z,10.60
2019-03-09T04:29:02.924Z,10.60
2019-03-09T04:31:32.581Z,10.60
2019-03-09T04:34:02.552Z,10.60
2019-03-09T04:36:32.137Z,10.60
2019-03-09T04:39:01.804Z,10.50
2019-03-09T04:41:31.482Z,10.60
2019-03-09T04:44:01.127Z,10.70
2019-03-09T04:46:30.946Z,10.60
2019-03-09T04:49:01.256Z,10.60
2019-03-09T04:51:30.993Z,10.60
2019-03-09T04:54:00.619Z,10.50
2019-03-09T04:56:30.236Z,10.50
2019-03-09T04:58:59.867Z,10.50
2019-03-09T05:01:29.506Z,10.50
2019-03-09T05:04:21.608Z,10.40
2019-03-09T05:06:51.239Z,10.40
2019-03-09T05:09:26.677Z,10.60
2019-03-09T05:11:56.313Z,10.60
2019-03-09T05:14:25.990Z,10.70
2019-03-09T05:16:55.588Z,10.60
2019-03-09T05:19:25.204Z,10.70
2019-03-09T05:21:54.891Z,10.70
2019-03-09T05:24:24.486Z,10.70
2019-03-09T05:26:54.071Z,10.70
2019-03-09T05:29:23.755Z,10.70
2019-03-09T05:31:53.393Z,10.60
2019-03-09T05:34:23.015Z,10.70
2019-03-09T05:36:52.595Z,10.80
2019-03-09T05:39:22.220Z,10.70
2019-03-09T05:41:51.813Z,10.60
2019-03-09T05:44:21.415Z,10.70
2019-03-09T05:46:51.011Z,10.80
2019-03-09T05:49:20.659Z,10.80
2019-03-09T05:52:22.098Z,10.70
2019-03-09T05:54:51.716Z,10.70
2019-03-09T05:57:21.312Z,10.70
2019-03-09T05:59:51.266Z,10.70
2019-03-09T06:02:20.849Z,10.70
2019-03-09T06:04:50.550Z,10.70
2019-03-09T06:07:20.194Z,10.80
2019-03-09T06:09:49.915Z,10.80
2019-03-09T06:12:19.518Z,10.90
2019-03-09T06:14:49.110Z,10.90
2019-03-09T06:17:18.728Z,10.90
2019-03-09T06:19:48.396Z,11.00
2019-03-09T06:22:17.985Z,11.00
2019-03-09T06:24:47.582Z,10.90
2019-03-09T06:27:17.186Z,10.90
2019-03-09T06:29:46.788Z,10.90
2019-03-09T06:32:34.537Z,10.90
2019-03-09T06:35:07.591Z,10.80
2019-03-09T06:37:37.185Z,10.80
2019-03-09T06:40:09.200Z,10.90
2019-03-09T06:42:44.339Z,10.90
2019-03-09T06:45:14.019Z,10.90
2019-03-09T06:47:43.698Z,11.00
2019-03-09T06:50:15.646Z,11.00
2019-03-09T06:52:45.414Z,11.00
2019-03-09T06:55:15.505Z,11.10
2019-03-09T06:57:45.098Z,11.30
2019-03-09T07:00:31.932Z,11.30
2019-03-09T07:03:02.064Z,11.30
2019-03-09T07:05:31.683Z,11.30
2019-03-09T07:08:01.341Z,11.20
2019-03-09T07:10:30.956Z,11.20
2019-03-09T07:13:00.575Z,11.40
2019-03-09T07:15:35.790Z,11.30
2019-03-09T07:18:08.041Z,11.30
2019-03-09T07:20:37.663Z,11.30
2019-03-09T07:23:07.260Z,11.30
2019-03-09T07:25:36.870Z,11.30
2019-03-09T07:28:11.811Z,11.20
2019-03-09T07:30:41.465Z,11.30
2019-03-09T07:33:11.091Z,11.30
2019-03-09T07:35:40.668Z,11.30
2019-03-09T07:38:10.261Z,11.20
2019-03-09T07:40:39.865Z,11.10
2019-03-09T07:43:09.462Z,11.20
2019-03-09T07:45:39.096Z,11.20
2019-03-09T07:48:08.679Z,11.20
2019-03-09T07:50:38.274Z,11.30
2019-03-09T07:53:07.967Z,11.20
2019-03-09T07:55:37.555Z,11.20
2019-03-09T07:58:07.359Z,11.30
2019-03-09T08:00:37.047Z,11.30
2019-03-09T08:03:06.731Z,11.40
2019-03-09T08:05:36.340Z,11.40
2019-03-09T08:08:05.948Z,11.40
2019-03-09T08:10:35.627Z,11.40
2019-03-09T08:13:05.434Z,11.30
2019-03-09T08:15:35.126Z,11.30
2019-03-09T08:18:04.823Z,11.30
2019-03-09T08:20:34.479Z,11.20
2019-03-09T08:23:04.068Z,11.20
2019-03-09T08:25:33.788Z,11.40
2019-03-09T08:28:03.403Z,11.40
2019-03-09T08:30:33.061Z,11.40
2019-03-09T08:33:02.686Z,11.40
2019-03-09T08:35:32.356Z,11.50
2019-03-09T08:38:02.011Z,11.40
2019-03-09T08:40:31.626Z,11.40
2019-03-09T08:43:01.243Z,11.50
2019-03-09T08:45:30.890Z,11.50
2019-03-09T08:48:00.482Z,11.50
2019-03-09T08:50:30.065Z,11.40
2019-03-09T08:52:59.685Z,11.50
2019-03-09T08:55:29.291Z,11.40
2019-03-09T08:57:58.921Z,11.50
2019-03-09T09:00:33.171Z,11.50
2019-03-09T09:03:02.848Z,11.60
2019-03-09T09:05:32.416Z,11.70
2019-03-09T09:08:03.775Z,11.60
2019-03-09T09:10:33.415Z,11.60
2019-03-09T09:13:03.026Z,11.70
2019-03-09T09:15:32.628Z,11.60
2019-03-09T09:18:02.240Z,11.60
2019-03-09T09:20:31.875Z,11.60
2019-03-09T09:23:01.521Z,11.70
2019-03-09T09:25:31.130Z,11.60
2019-03-09T09:28:00.735Z,11.70
2019-03-09T09:30:31.689Z,11.70
2019-03-09T09:33:01.313Z,11.80
2019-03-09T09:35:31.034Z,11.80
2019-03-09T09:38:00.874Z,11.90
2019-03-09T09:40:30.572Z,11.80
2019-03-09T09:43:00.198Z,11.90
2019-03-09T09:45:29.975Z,11.90
2019-03-09T09:47:59.579Z,12.00
2019-03-09T09:50:29.287Z,12.10
2019-03-09T09:52:58.921Z,12.20
2019-03-09T09:55:28.569Z,12.20
2019-03-09T09:57:58.172Z,12.20
2019-03-09T10:00:28.661Z,12.00
2019-03-09T10:02:58.231Z,12.10
2019-03-09T10:05:28.000Z,12.20
2019-03-09T10:07:57.641Z,12.30
2019-03-09T10:10:29.619Z,12.30
2019-03-09T10:12:58.561Z,12.40
2019-03-09T10:15:31.228Z,12.40
2019-03-09T10:18:00.925Z,12.50
2019-03-09T10:20:30.547Z,12.40
2019-03-09T10:23:04.519Z,12.40
2019-03-09T10:25:31.366Z,12.40
2019-03-09T10:28:00.966Z,12.50
2019-03-09T10:30:30.600Z,12.70
2019-03-09T10:33:00.202Z,12.60
2019-03-09T10:35:29.873Z,12.60
2019-03-09T10:37:59.421Z,12.60
2019-03-09T10:40:29.045Z,12.70
2019-03-09T10:42:58.638Z,12.70
2019-03-09T10:45:28.333Z,12.70
2019-03-09T10:47:57.939Z,12.60
2019-03-09T10:50:27.558Z,12.50
2019-03-09T10:52:57.184Z,12.50
2019-03-09T10:55:34.806Z,12.60
2019-03-09T10:58:04.777Z,12.70
2019-03-09T11:00:39.351Z,12.70
2019-03-09T11:03:09.172Z,12.70
2019-03-09T11:05:38.808Z,12.70
2019-03-09T11:08:08.501Z,12.70
2019-03-09T11:10:38.263Z,12.80
2019-03-09T11:13:07.864Z,12.70
2019-03-09T11:15:37.970Z,12.80
2019-03-09T11:18:07.883Z,12.80
2019-03-09T11:20:37.514Z,12.80
2019-03-09T11:23:07.144Z,12.90
2019-03-09T11:25:36.799Z,13.00
2019-03-09T11:28:11.755Z,13.10
2019-03-09T11:30:41.398Z,13.00
2019-03-09T11:33:11.023Z,13.00
2019-03-09T11:35:40.647Z,13.10
2019-03-09T11:38:10.284Z,13.20
2019-03-09T11:40:39.917Z,13.30
2019-03-09T11:43:09.575Z,13.50
2019-03-09T11:45:39.188Z,13.40
2019-03-09T11:48:08.895Z,13.40
2019-03-09T11:50:38.601Z,13.40
2019-03-09T11:53:08.199Z,13.40
2019-03-09T11:55:37.806Z,13.40
2019-03-09T11:58:07.435Z,13.50
2019-03-09T12:00:41.815Z,13.60
2019-03-09T12:03:11.443Z,13.60
2019-03-09T12:05:41.067Z,13.60
2019-03-09T12:08:10.755Z,13.30
2019-03-09T12:10:40.390Z,13.10
2019-03-09T12:13:09.997Z,13.10
2019-03-09T12:15:39.611Z,13.00
2019-03-09T12:18:09.214Z,12.80
2019-03-09T12:20:38.900Z,12.70
2019-03-09T12:23:22.832Z,12.60
2019-03-09T12:25:52.846Z,12.60
2019-03-09T12:28:22.451Z,12.60
2019-03-09T12:30:52.141Z,12.60
2019-03-09T12:33:21.822Z,12.60
2019-03-09T12:35:51.459Z,12.70
2019-03-09T12:38:21.075Z,12.60
2019-03-09T12:40:50.692Z,12.60
2019-03-09T12:43:20.371Z,12.40
2019-03-09T12:45:49.970Z,12.50
2019-03-09T12:48:19.571Z,12.60
2019-03-09T12:50:49.216Z,12.90
2019-03-09T12:53:18.808Z,13.20
2019-03-09T12:55:48.583Z,13.20
2019-03-09T12:58:18.237Z,13.20
2019-03-09T13:00:47.914Z,13.20
2019-03-09T13:03:17.572Z,13.20
2019-03-09T13:05:48.876Z,13.20
2019-03-09T13:08:18.495Z,13.30
2019-03-09T13:10:48.089Z,13.30
2019-03-09T13:13:17.789Z,13.40
2019-03-09T13:15:47.435Z,13.50
2019-03-09T13:18:17.037Z,13.50
2019-03-09T13:20:46.631Z,13.50
2019-03-09T13:23:16.310Z,13.50
2019-03-09T13:25:46.079Z,13.60
2019-03-09T13:28:16.258Z,13.70
2019-03-09T13:30:46.132Z,13.60
2019-03-09T13:33:15.756Z,13.60
2019-03-09T13:35:45.394Z,13.70
2019-03-09T13:38:14.988Z,13.50
2019-03-09T13:40:44.627Z,13.60
2019-03-09T13:43:14.237Z,13.40
2019-03-09T13:45:43.846Z,13.30
2019-03-09T13:48:13.540Z,13.20
2019-03-09T13:50:43.139Z,13.20
2019-03-09T13:53:12.778Z,13.30
2019-03-09T13:55:42.374Z,13.40
2019-03-09T13:58:11.979Z,13.50
2019-03-09T14:00:41.591Z,13.70
2019-03-09T14:03:11.236Z,13.80
2019-03-09T14:05:40.833Z,13.80
2019-03-09T14:08:10.547Z,13.90
2019-03-09T14:10:40.151Z,13.80
2019-03-09T14:13:09.827Z,13.80
2019-03-09T14:15:39.410Z,13.90
2019-03-09T14:18:09.006Z,14.10
2019-03-09T14:20:38.595Z,14.10
2019-03-09T14:23:08.228Z,14.20
2019-03-09T14:25:37.835Z,14.00
2019-03-09T14:28:07.447Z,14.00
2019-03-09T14:30:37.049Z,14.20
2019-03-09T14:33:06.663Z,14.20
2019-03-09T14:35:36.290Z,14.20
2019-03-09T14:38:05.894Z,14.10
2019-03-09T14:40:35.487Z,14.20
2019-03-09T14:43:05.166Z,14.30
2019-03-09T14:45:34.776Z,14.20
2019-03-09T14:48:04.466Z,14.10
2019-03-09T14:50:34.082Z,14.20
2019-03-09T14:53:03.708Z,14.30
2019-03-09T14:55:33.285Z,14.30
2019-03-09T14:58:02.896Z,14.10
2019-03-09T15:00:32.572Z,14.20
2019-03-09T15:03:02.176Z,14.10
2019-03-09T15:05:31.788Z,14.00
2019-03-09T15:08:01.416Z,13.90
2019-03-09T15:10:31.017Z,14.10
2019-03-09T15:13:00.708Z,14.10
2019-03-09T15:15:33.343Z,14.00
2019-03-09T15:18:03.007Z,14.00
2019-03-09T15:20:32.611Z,14.20
2019-03-09T15:23:02.311Z,14.20
2019-03-09T15:25:31.933Z,14.30
2019-03-09T15:28:01.543Z,14.20
2019-03-09T15:30:32.953Z,14.20
2019-03-09T15:33:05.930Z,14.10
2019-03-09T15:35:35.535Z,14.10
2019-03-09T15:38:05.139Z,14.20
2019-03-09T15:40:34.739Z,14.20
2019-03-09T15:43:05.955Z,14.10
2019-03-09T15:45:35.696Z,14.20
2019-03-09T15:48:06.527Z,14.20
2019-03-09T15:50:36.140Z,14.20
2019-03-09T15:53:05.738Z,14.20
2019-03-09T15:55:38.443Z,14.10
2019-03-09T15:58:08.131Z,14.00
2019-03-09T16:00:37.750Z,14.00
2019-03-09T16:03:07.519Z,13.80
2019-03-09T16:05:37.267Z,13.80
2019-03-09T16:08:06.875Z,13.80
2019-03-09T16:10:38.596Z,13.70
2019-03-09T16:13:08.211Z,13.50
2019-03-09T16:15:37.819Z,13.50
2019-03-09T16:18:07.414Z,13.60
2019-03-09T16:20:37.076Z,13.50
2019-03-09T16:23:06.673Z,13.50
2019-03-09T16:25:36.280Z,13.50
2019-03-09T16:28:05.943Z,13.40
2019-03-09T16:30:35.560Z,13.30
2019-03-09T16:33:05.148Z,13.30
2019-03-09T16:35:34.762Z,13.20
2019-03-09T16:38:04.439Z,13.30
2019-03-09T16:40:40.494Z,13.20
2019-03-09T16:43:05.283Z,13.40
2019-03-09T16:45:34.887Z,13.40
2019-03-09T16:48:04.710Z,13.40
2019-03-09T16:50:34.321Z,13.30
2019-03-09T16:53:03.900Z,13.30
2019-03-09T16:55:33.546Z,13.30
2019-03-09T16:58:03.151Z,13.20
2019-03-09T17:00:32.791Z,13.20
2019-03-09T17:03:02.355Z,13.20
2019-03-09T17:05:32.119Z,13.20
2019-03-09T17:08:01.721Z,13.20
2019-03-09T17:10:31.476Z,13.20
2019-03-09T17:13:01.098Z,13.20
2019-03-09T17:15:30.716Z,13.20
2019-03-09T17:18:00.304Z,13.20
2019-03-09T17:20:29.939Z,13.20
2019-03-09T17:22:59.530Z,13.20
2019-03-09T17:25:29.145Z,13.10
2019-03-09T17:27:58.943Z,13.10
2019-03-09T17:30:28.527Z,13.00
2019-03-09T17:32:58.190Z,12.90
2019-03-09T17:35:29.525Z,12.80
2019-03-09T17:37:59.135Z,12.70
2019-03-09T17:40:28.736Z,12.80
2019-03-09T17:42:58.376Z,12.80
2019-03-09T17:45:28.464Z,12.70
2019-03-09T17:47:58.060Z,12.70
2019-03-09T17:50:27.660Z,12.70
2019-03-09T17:52:57.279Z,12.60
2019-03-09T17:55:26.899Z,12.60
2019-03-09T17:57:56.535Z,12.70
2019-03-09T18:00:41.845Z,12.50
2019-03-09T18:03:02.700Z,12.50
2019-03-09T18:05:32.292Z,12.50
2019-03-09T18:08:07.367Z,12.50
2019-03-09T18:10:43.017Z,12.50
2019-03-09T18:13:12.632Z,12.40
2019-03-09T18:15:42.223Z,12.40
2019-03-09T18:18:11.898Z,12.30
2019-03-09T18:20:41.509Z,12.20
2019-03-09T18:23:11.096Z,12.20
2019-03-09T18:25:40.692Z,12.20
2019-03-09T18:28:10.807Z,12.10
2019-03-09T18:30:40.406Z,12.20
2019-03-09T18:33:10.039Z,12.20
2019-03-09T18:35:41.657Z,12.40
2019-03-09T18:38:10.859Z,12.30
2019-03-09T18:40:40.498Z,12.20
2019-03-09T18:43:10.101Z,12.10
2019-03-09T18:45:39.717Z,12.10
2019-03-09T18:48:09.360Z,12.00
2019-03-09T18:50:38.940Z,12.10
2019-03-09T18:53:08.544Z,12.00
2019-03-09T18:55:38.168Z,12.00
2019-03-09T18:58:07.775Z,11.90
2019-03-09T19:00:37.354Z,11.90
2019-03-09T19:03:06.990Z,11.90
2019-03-09T19:05:36.585Z,12.00
2019-03-09T19:08:06.297Z,11.90
2019-03-09T19:10:35.884Z,11.90
2019-03-09T19:13:05.572Z,11.90
2019-03-09T19:15:35.207Z,11.90
2019-03-09T19:18:04.859Z,12.00
2019-03-09T19:20:34.460Z,12.00
2019-03-09T19:23:04.142Z,12.00
2019-03-09T19:25:33.992Z,12.00
2019-03-09T19:28:03.640Z,11.90
2019-03-09T19:30:34.860Z,11.90
2019-03-09T19:33:04.469Z,11.90
2019-03-09T19:35:34.683Z,11.80
2019-03-09T19:38:04.298Z,11.90
2019-03-09T19:40:33.886Z,11.90
2019-03-09T19:43:03.485Z,11.90
2019-03-09T19:45:33.077Z,11.90
2019-03-09T19:48:02.753Z,11.90
2019-03-09T19:50:32.351Z,11.80
2019-03-09T19:53:01.968Z,11.80
2019-03-09T19:55:31.624Z,11.80
2019-03-09T19:58:01.319Z,11.80
2019-03-09T20:00:30.923Z,11.80
2019-03-09T20:03:00.537Z,11.80
2019-03-09T20:05:30.149Z,11.80
2019-03-09T20:07:59.790Z,11.80
2019-03-09T20:10:30.530Z,11.70
2019-03-09T20:13:00.129Z,11.70
2019-03-09T20:15:29.807Z,11.60
2019-03-09T20:17:59.486Z,11.70
2019-03-09T20:20:29.087Z,11.60
2019-03-09T20:22:58.676Z,11.60
2019-03-09T20:25:28.619Z,11.60
2019-03-09T20:27:58.550Z,11.50
2019-03-09T20:30:28.155Z,11.40
2019-03-09T20:32:57.735Z,11.40
2019-03-09T20:35:27.757Z,11.40
2019-03-09T20:37:57.352Z,11.50
2019-03-09T20:40:27.005Z,11.50
2019-03-09T20:42:56.546Z,11.40
2019-03-09T20:45:26.157Z,11.40
2019-03-09T20:47:55.748Z,11.40
2019-03-09T20:50:32.071Z,11.40
2019-03-09T20:53:01.673Z,11.30
2019-03-09T20:55:31.289Z,11.30
2019-03-09T20:58:01.250Z,11.30
2019-03-09T21:00:30.891Z,11.30
2019-03-09T21:03:00.483Z,11.30
2019-03-09T21:05:30.109Z,11.30
2019-03-09T21:07:59.687Z,11.30
2019-03-09T21:10:29.353Z,11.30
2019-03-09T21:13:11.956Z,11.20
2019-03-09T21:15:41.550Z,11.20
2019-03-09T21:18:11.179Z,11.20
2019-03-09T21:20:40.775Z,11.20
2019-03-09T21:23:10.368Z,11.20
2019-03-09T21:25:41.622Z,11.20
2019-03-09T21:28:11.222Z,11.20
2019-03-09T21:30:40.849Z,11.10
2019-03-09T21:33:10.840Z,11.10
2019-03-09T21:35:40.598Z,11.00
2019-03-09T21:38:10.229Z,11.00
2019-03-09T21:40:39.863Z,11.00
2019-03-09T21:43:09.467Z,11.10
2019-03-09T21:45:39.076Z,11.00
2019-03-09T21:48:08.742Z,11.00
2019-03-09T21:50:38.317Z,11.10
2019-03-09T21:53:08.028Z,11.00
2019-03-09T21:55:37.635Z,11.00
2019-03-09T21:58:07.230Z,11.00
2019-03-09T22:00:36.834Z,11.00
2019-03-09T22:03:06.433Z,11.00
2019-03-09T22:05:36.048Z,11.00
2019-03-09T22:08:05.668Z,11.00
2019-03-09T22:10:35.327Z,11.10
2019-03-09T22:13:04.962Z,11.00
2019-03-09T22:15:34.567Z,11.10
2019-03-09T22:18:04.232Z,11.10
2019-03-09T22:20:33.841Z,11.10
2019-03-09T22:23:03.436Z,11.20
2019-03-09T22:25:33.260Z,11.10
2019-03-09T22:28:02.849Z,11.20
2019-03-09T22:30:32.508Z,11.10
2019-03-09T22:33:04.623Z,11.20
2019-03-09T22:35:33.947Z,11.10
2019-03-09T22:38:03.615Z,11.00
2019-03-09T22:40:33.296Z,11.00
2019-03-09T22:43:02.894Z,11.10
2019-03-09T22:45:32.491Z,11.20
2019-03-09T22:48:02.134Z,11.10
2019-03-09T22:50:31.735Z,11.10
2019-03-09T22:53:01.339Z,11.10
2019-03-09T22:55:30.943Z,11.20
2019-03-09T22:58:00.549Z,11.20
2019-03-09T23:00:31.411Z,11.10
2019-03-09T23:03:01.092Z,11.20
2019-03-09T23:05:30.784Z,11.20
2019-03-09T23:08:00.421Z,11.10
2019-03-09T23:10:30.072Z,11.00
2019-03-09T23:12:59.682Z,11.00
2019-03-09T23:15:29.311Z,11.00
2019-03-09T23:17:58.944Z,11.10
2019-03-09T23:20:28.543Z,11.10
2019-03-09T23:22:58.145Z,11.10
2019-03-09T23:25:27.950Z,11.00
2019-03-09T23:27:57.558Z,11.10
2019-03-09T23:30:27.143Z,11.00
2019-03-09T23:32:56.769Z,11.00
2019-03-09T23:35:26.435Z,10.90
2019-03-09T23:37:56.028Z,11.00
2019-03-09T23:40:25.639Z,10.90
2019-03-09T23:42:55.243Z,10.90
2019-03-09T23:45:26.776Z,10.90
2019-03-09T23:47:56.456Z,10.90
2019-03-09T23:50:26.107Z,10.90
2019-03-09T23:52:55.796Z,10.80
2019-03-09T23:55:25.416Z,10.80
2019-03-09T23:57:55.011Z,10.90
